Terminal Aerodrome Forecast
Issued by NWS

Home | Current Version | Previous Version | Text Only | Print | Product List | Glossary On
Versions: 1 2 3 4 5 6 7 8 9 10 11 12 13 14 15 16 17 18 19
000
FTUS42 KGSP 310655 AAA
TAFGMU
TAF AMD
KGMU 310655Z 3107/0106 02004KT P6SM SCT025
      TEMPO 3107/3109 BKN025
     FM310900 03004KT P6SM OVC012
      TEMPO 3109/3112 5SM BR OVC008
     FM311400 03006KT P6SM BKN025
     FM311700 05005KT P6SM SCT050
     FM010200 00000KT P6SM FEW060=

USA.gov is the U.S. government's official web portal to all federal, state and local government web resources and services.